Detalii statie GENERAL AGRO [00001CEA]

Toti senzorii

Date Temperatura solului [C]Precipitatii [mm]Voltaj baterie [mV]HC Air temperature [C]HC Relative humidity [%]Punctul de roua [C]
medieminmaxsumaultimamedieminmaxmediemediemin
2019-06-15 17:00:00 24.7 24.6 24.9 0.8 6864 23.02 22.43 24.07 2.45 0
2019-06-15 17:30:00 24.5 24.5 24.7 0.4 6844 22.43 22.22 22.63 0 0 0
2019-06-15 18:00:00 24.3 24.2 24.4 0 6844 23.01 22.3 23.49 0 0 0
2019-06-15 18:30:00 24.1 24 24.3 0 6826 22.1 21.93 22.43 0 0 0
2019-06-15 19:00:00 23.9 23.8 24 0 6834 22.1 21.86 22.28 0 0 0
2019-06-15 19:30:00 23.8 23.7 23.9 0 6834 21.53 21.38 21.71 0 0 0
2019-06-15 20:00:00 23.6 23.6 23.8 0 6834 21.37 21.14 21.81 0 0 0
2019-06-15 20:30:00 23.5 23.5 23.5 0 6826 21.49 20.74 22.13 0 0 0
2019-06-15 21:00:00 23.3 23.2 23.5 0 6826 20.7 20.6 20.8 0 0 0
2019-06-15 21:30:00 23.2 23.2 23.2 0 6796 20.54 20.31 20.77 0 0 0
2019-06-15 22:00:00 23 22.9 23.2 0 6796 20.34 20.08 20.74 0 0 0
2019-06-15 22:30:00 22.8 22.8 22.9 0 6806 20.27 19.93 20.68 0 0 0
2019-06-15 23:00:00 22.7 22.6 22.8 0 6786 19.98 19.74 20.18 0 0 0
2019-06-15 23:30:00 22.7 22.6 22.8 0 6776 19.46 19.3 19.66 0 0 0
2019-06-16 00:00:00 22.5 22.5 22.7 0 6776 19.18 19 19.3 0 0 0
2019-06-16 00:30:00 22.4 22.4 22.6 0 6766 18.86 18.82 18.98 0 0 0
2019-06-16 01:00:00 22.3 22.2 22.5 0 6766 19.07 18.88 19.24 0 0 0
2019-06-16 01:30:00 22.2 22.2 22.4 0 6766 18.85 18.4 19.01 0 0 0
2019-06-16 02:00:00 22 22 22.2 0 6776 18.42 18.29 18.72 0 0 0
2019-06-16 02:30:00 21.9 21.8 22 0 6766 18.54 18.2 18.89 0 0 0
2019-06-16 03:00:00 21.8 21.7 22 0 6776 17.99 17.81 18.19 0 0 0
2019-06-16 03:30:00 21.8 21.7 21.9 0.2 6766 18.53 18.33 18.69 0 0 0
2019-06-16 04:00:00 21.5 21.5 21.7 0 6776 18.63 18.42 18.77 0 0 0
2019-06-16 04:30:00 21.5 21.5 21.7 0 6756 19.08 18.89 19.2 0 0 0
2019-06-16 05:00:00 21.4 21.3 21.5 0 6766 19.34 19.23 19.47 0 0 0
2019-06-16 05:30:00 21.3 21.1 21.6 0 6756 19.81 19.54 20.1 0 0 0
2019-06-16 06:00:00 21.4 21.3 21.6 0 6796 20.61 20.31 20.9 0 0 0
2019-06-16 06:30:00 21.5 21.4 21.6 0 6796 21.19 20.97 21.56 0 0 0
2019-06-16 07:00:00 21.4 21.4 21.6 0 6826 21.99 21.5 22.4 0 0 0
2019-06-16 07:30:00 21.6 21.5 21.7 0 6816 22.91 22.59 23.43 0 0 0
2019-06-16 08:00:00 21.8 21.7 22 0 6884 24.19 23.85 24.51 45.93 0
2019-06-16 08:30:00 21.9 21.8 22.1 0 6992 25.33 24.89 25.79 0 0 0
2019-06-16 09:00:00 22.2 22.1 22.4 0 7118 26.46 25.86 27.01 36.58 10.9 0
2019-06-16 09:30:00 22.5 22.4 22.8 0 7128 27.77 27.21 28.48 0 0 0
2019-06-16 10:00:00 22.9 22.7 23.2 0 7138 29.01 28.58 29.72 0 0 0
2019-06-16 10:30:00 23.4 23.2 23.7 0 7128 29.88 29.59 30.33 0 0 0
2019-06-16 11:00:00 23.8 23.7 24 0 7108 30.86 30.08 31.33 4.6 0
2019-06-16 11:30:00 24.3 24.1 24.5 0 7088 31.63 31.13 32.37 0 0 0
2019-06-16 12:00:00 24.7 24.6 25 0 7128 32.32 31.87 33.08 0 0 0
2019-06-16 12:30:00 25.1 25 25.3 0 7128 32.45 32.15 32.89 0 0 0
2019-06-16 13:00:00 25.5 25.4 25.7 0 7118 33.12 32.9 33.36 0 0 0
2019-06-16 13:30:00 25.9 25.7 26.1 0 7080 33.23 33.03 33.57 0 0 0
2019-06-16 14:00:00 26.1 26 26.3 0 7030 33.47 32.65 33.86 0 0 0
2019-06-16 14:30:00 26.2 26.2 26.4 0 6982 33.45 32.75 33.87 0 0 0
2019-06-16 15:00:00 26.3 26.3 26.4 0 6942 30.75 30.23 32.02 0 0 0
2019-06-16 15:30:00 26.1 26 26.3 0 6922 30.57 29.92 31.29 0 0 0
2019-06-16 16:00:00 26.2 26.1 26.3 0 6922 31.06 30.48 31.63 0 0 0
2019-06-16 16:30:00 26.2 26.1 26.3 0 6914 30.78 30.06 31.6 0 0 0